Triana, Alabama
Current Conditions -  °F | °C
As of 9:53 PM on Friday 24 Oct 2014 (Local Time) from KHSV Reporting Station
Clear Clear  
Wind Chill: 55°   Ceiling: Unl
Heat Index: 55°   Visibility: 10mi
Dew Point: 43°   Wind: 0mph
Humidity: 64%   Direction: NA
Pressure: 30.09"   Gusts: NA
Location:  34.6731°N, 86.8135°W
Report Text: KHSV 250253Z 00000KT 10SM CLR 13/06 A3009 RMK AO2 SLP187 T01280061 53010
Loading
Personal Weather Stations






























Interactive Weather Map New forecast layout! Learn more

10-Day Weather Forecast

Advertisements
Track Severe Weather on mobile